Alhambra, Illinois
Current Conditions -  °F | °C
As of 2:35 AM on Friday 28 Nov 2014 (Local Time) from KALN Reporting Station
Clear Clear  
Wind Chill: -10°   Ceiling: Unl
Heat Index: -5°   Visibility: 10mi
Dew Point: -8°   Wind: 7mph
Humidity: 81%   Direction: 120°ESE
Pressure: 30.39"   Gusts: NA
Location:  38.89°N, 89.73°W
Report Text: KALN 280835Z AUTO 12006KT 10SM CLR M05/M08 A3039 RMK AO2 T10501078
Loading
Personal Weather Stations






























Interactive Weather Map New forecast layout! Learn more

10-Day Weather Forecast

Advertisements
Track Severe Weather on mobile